Time;durP1;ratioP1;P1;durP2;ratioP2;P2;SDS_P1;SDS_P2;PMS_P1;PMS_P2;Temp;Humidity;BMP_temperature;BMP_pressure;BME280_temperature;BME280_humidity;BME280_pressure;Samples;Min_cycle;Max_cycle;Signal;HPM_P1;HPM_P2
2022/05/03 00:00:08;;;;;;;1.92;0.90;;;;;;;;;;5003351;28;20227;-18
2022/05/03 00:02:38;;;;;;;0.77;0.70;;;;;;;;;;5000350;28;20235;-18
2022/05/03 00:05:08;;;;;;;1.35;0.90;;;;;;;;;;5001294;28;20236;-18
2022/05/03 00:07:36;;;;;;;1.20;1.02;;;;;;;;;;4998887;28;20232;-18
2022/05/03 00:10:07;;;;;;;0.90;0.90;;;;;;;;;;5002237;28;20240;-19
2022/05/03 00:12:35;;;;;;;0.85;0.80;;;;;;;;;;5000885;28;20224;-19
2022/05/03 00:15:03;;;;;;;0.90;0.80;;;;;;;;;;5000674;28;20235;-18
2022/05/03 00:17:31;;;;;;;1.08;0.82;;;;;;;;;;5000649;28;20240;-18
2022/05/03 00:19:58;;;;;;;1.00;0.90;;;;;;;;;;4998605;28;20287;-19
2022/05/03 00:22:27;;;;;;;1.63;1.13;;;;;;;;;;5001186;28;20342;-18
2022/05/03 00:24:55;;;;;;;1.00;0.80;;;;;;;;;;5001249;28;20281;-19
2022/05/03 00:27:24;;;;;;;1.30;0.98;;;;;;;;;;4999299;28;20228;-19
2022/05/03 00:29:51;;;;;;;1.30;0.90;;;;;;;;;;5002143;28;20234;-19
2022/05/03 00:32:20;;;;;;;1.63;0.70;;;;;;;;;;5000176;28;20231;-18
2022/05/03 00:34:47;;;;;;;0.90;0.70;;;;;;;;;;5002056;28;20235;-18
2022/05/03 00:37:15;;;;;;;0.77;0.77;;;;;;;;;;5002352;28;20240;-18
2022/05/03 00:39:43;;;;;;;0.93;0.70;;;;;;;;;;5001815;28;20235;-19
2022/05/03 00:42:14;;;;;;;1.15;0.70;;;;;;;;;;4998917;28;20327;-18
2022/05/03 00:45:02;;;;;;;1.00;0.90;;;;;;;;;;5001975;28;20496;-18
2022/05/03 00:47:34;;;;;;;1.17;0.80;;;;;;;;;;4995849;28;20725;-18
2022/05/03 00:50:03;;;;;;;1.63;0.82;;;;;;;;;;5000117;28;20244;-19
2022/05/03 00:52:32;;;;;;;0.80;0.80;;;;;;;;;;5003724;28;20236;-18
2022/05/03 00:55:05;;;;;;;0.88;0.80;;;;;;;;;;5008608;28;20586;-19
2022/05/03 00:57:36;;;;;;;1.00;0.70;;;;;;;;;;5003230;28;20243;-18
2022/05/03 01:00:07;;;;;;;1.15;0.80;;;;;;;;;;5006098;28;20224;-19
2022/05/03 01:02:50;;;;;;;1.48;0.88;;;;;;;;;;5003997;28;20328;-18
2022/05/03 01:05:20;;;;;;;1.00;0.63;;;;;;;;;;5006352;28;20236;-19
2022/05/03 01:07:48;;;;;;;1.00;0.90;;;;;;;;;;5001760;28;20240;-18
2022/05/03 01:10:18;;;;;;;1.75;1.00;;;;;;;;;;5005647;28;20274;-19
2022/05/03 01:12:53;;;;;;;2.05;0.63;;;;;;;;;;4997680;28;20318;-18
2022/05/03 01:15:21;;;;;;;0.70;0.65;;;;;;;;;;5003175;28;21130;-19
2022/05/03 01:17:52;;;;;;;1.40;0.73;;;;;;;;;;5004790;28;20247;-19
2022/05/03 01:20:22;;;;;;;0.70;0.70;;;;;;;;;;5004986;28;20690;-18
2022/05/03 01:22:55;;;;;;;0.82;0.73;;;;;;;;;;5005477;28;20240;-19
2022/05/03 01:25:29;;;;;;;0.75;0.75;;;;;;;;;;5004146;28;20235;-19
2022/05/03 01:27:59;;;;;;;0.95;0.80;;;;;;;;;;5005610;28;20231;-18
2022/05/03 01:30:28;;;;;;;0.95;0.85;;;;;;;;;;5002023;28;20240;-18
2022/05/03 01:32:55;;;;;;;1.88;0.73;;;;;;;;;;5003739;28;20694;-18
2022/05/03 01:35:22;;;;;;;1.10;0.70;;;;;;;;;;5005087;28;20232;-18
2022/05/03 01:37:58;;;;;;;1.00;0.60;;;;;;;;;;5002388;28;20242;-18
2022/05/03 01:40:30;;;;;;;1.02;0.88;;;;;;;;;;5008070;28;20235;-19
2022/05/03 01:43:00;;;;;;;1.02;0.75;;;;;;;;;;5001176;28;20543;-20
2022/05/03 01:45:30;;;;;;;0.77;0.70;;;;;;;;;;5002398;28;20247;-18
2022/05/03 01:48:01;;;;;;;1.25;0.90;;;;;;;;;;5003276;28;20216;-18
2022/05/03 01:50:27;;;;;;;1.00;0.70;;;;;;;;;;5002578;28;20737;-18
2022/05/03 01:53:08;;;;;;;0.80;0.77;;;;;;;;;;5001312;28;20239;-18
2022/05/03 01:55:47;;;;;;;1.13;0.80;;;;;;;;;;5004235;28;20731;-21
2022/05/03 01:58:18;;;;;;;0.63;0.60;;;;;;;;;;5000841;28;20239;-18
2022/05/03 02:00:48;;;;;;;1.20;0.70;;;;;;;;;;5005540;28;20229;-18
2022/05/03 02:03:19;;;;;;;2.67;0.80;;;;;;;;;;5001095;28;20244;-21
2022/05/03 02:05:51;;;;;;;1.38;0.88;;;;;;;;;;5004376;28;20737;-18
2022/05/03 02:08:19;;;;;;;2.40;0.80;;;;;;;;;;5000925;28;20251;-20
2022/05/03 02:10:50;;;;;;;1.48;0.90;;;;;;;;;;5004540;28;20236;-19
2022/05/03 02:13:21;;;;;;;1.00;0.88;;;;;;;;;;5006756;28;20235;-19
2022/05/03 02:15:49;;;;;;;1.10;0.70;;;;;;;;;;5002175;28;20341;-19
2022/05/03 02:18:19;;;;;;;0.85;0.80;;;;;;;;;;5004052;28;20248;-19
2022/05/03 02:21:03;;;;;;;2.13;0.90;;;;;;;;;;4998289;28;20342;-19
2022/05/03 02:23:36;;;;;;;1.27;0.73;;;;;;;;;;5000120;28;20240;-20
2022/05/03 02:26:22;;;;;;;1.15;0.82;;;;;;;;;;4999855;28;20223;-20
2022/05/03 02:28:52;;;;;;;1.20;0.85;;;;;;;;;;5004611;28;20610;-20
2022/05/03 02:31:23;;;;;;;0.93;0.80;;;;;;;;;;5002825;28;20232;-19
2022/05/03 02:33:51;;;;;;;1.10;0.90;;;;;;;;;;5003449;28;20290;-19
2022/05/03 02:36:23;;;;;;;0.85;0.75;;;;;;;;;;5002076;28;20336;-20
2022/05/03 02:38:53;;;;;;;0.90;0.70;;;;;;;;;;5003208;28;20738;-19
2022/05/03 02:41:21;;;;;;;0.80;0.70;;;;;;;;;;5000463;28;20240;-20
2022/05/03 02:43:48;;;;;;;1.02;0.75;;;;;;;;;;5000222;28;20240;-19
2022/05/03 02:46:27;;;;;;;0.98;0.85;;;;;;;;;;5006128;28;20266;-19
2022/05/03 02:48:56;;;;;;;0.85;0.80;;;;;;;;;;4999421;28;20711;-20
2022/05/03 02:51:26;;;;;;;0.60;0.60;;;;;;;;;;4999960;28;20618;-19
2022/05/03 02:53:56;;;;;;;2.20;0.88;;;;;;;;;;4999974;28;20236;-19
2022/05/03 02:56:23;;;;;;;0.90;0.70;;;;;;;;;;5000175;28;20952;-20
2022/05/03 02:58:54;;;;;;;1.15;0.80;;;;;;;;;;5003237;28;20623;-19
2022/05/03 03:04:12;;;;;;;2.15;0.70;;;;;;;;;;5002611;28;21266;-19
2022/05/03 03:06:39;;;;;;;0.82;0.70;;;;;;;;;;5001008;28;20235;-19
2022/05/03 03:09:07;;;;;;;0.93;0.80;;;;;;;;;;5001758;28;20703;-19
2022/05/03 03:11:49;;;;;;;0.90;0.80;;;;;;;;;;4999095;28;20238;-19
2022/05/03 03:14:21;;;;;;;1.17;0.90;;;;;;;;;;5003184;28;20235;-19
2022/05/03 03:16:52;;;;;;;1.60;1.00;;;;;;;;;;5002123;28;20231;-19
2022/05/03 03:19:26;;;;;;;1.95;0.93;;;;;;;;;;4999947;28;21115;-20
2022/05/03 03:21:53;;;;;;;1.95;0.90;;;;;;;;;;5003735;28;20282;-19
2022/05/03 03:24:20;;;;;;;1.02;0.73;;;;;;;;;;5002578;28;20228;-19
2022/05/03 03:26:47;;;;;;;2.60;0.90;;;;;;;;;;4999539;28;21009;-19
2022/05/03 03:29:15;;;;;;;1.08;0.90;;;;;;;;;;5007040;28;20235;-19
2022/05/03 03:31:42;;;;;;;1.08;0.98;;;;;;;;;;4999224;28;20240;-20
2022/05/03 03:34:10;;;;;;;0.80;0.80;;;;;;;;;;5002616;28;20350;-20
2022/05/03 03:36:38;;;;;;;1.48;0.98;;;;;;;;;;5004378;28;20223;-20
2022/05/03 03:39:05;;;;;;;1.00;0.88;;;;;;;;;;5001901;28;20247;-20
2022/05/03 03:41:33;;;;;;;1.23;0.80;;;;;;;;;;4999335;28;20240;-19
2022/05/03 03:44:03;;;;;;;1.50;1.05;;;;;;;;;;5002083;28;20603;-19
2022/05/03 03:46:31;;;;;;;0.85;0.75;;;;;;;;;;5001389;28;20242;-19
2022/05/03 03:48:58;;;;;;;1.10;1.00;;;;;;;;;;5000808;28;20243;-20
2022/05/03 03:51:26;;;;;;;1.10;0.90;;;;;;;;;;5001773;28;20224;-19
2022/05/03 03:53:54;;;;;;;1.17;0.90;;;;;;;;;;4999190;28;20232;-19
2022/05/03 03:56:22;;;;;;;1.42;0.95;;;;;;;;;;5002053;28;20233;-19
2022/05/03 03:58:49;;;;;;;0.80;0.77;;;;;;;;;;4999164;28;20251;-19
2022/05/03 04:01:17;;;;;;;1.13;0.82;;;;;;;;;;5000893;28;20236;-20
2022/05/03 04:03:44;;;;;;;1.15;0.95;;;;;;;;;;5003178;28;20224;-19
2022/05/03 04:06:11;;;;;;;1.17;0.70;;;;;;;;;;5002573;28;20240;-20
2022/05/03 04:08:39;;;;;;;1.40;0.80;;;;;;;;;;5001941;28;20227;-19
2022/05/03 04:11:17;;;;;;;0.90;0.70;;;;;;;;;;4999882;28;20575;-19
2022/05/03 04:13:44;;;;;;;1.58;1.10;;;;;;;;;;5002937;28;20908;-19
2022/05/03 04:16:11;;;;;;;1.83;0.98;;;;;;;;;;4999325;28;20231;-20
2022/05/03 04:18:45;;;;;;;1.17;0.80;;;;;;;;;;4999063;28;20244;-19
2022/05/03 04:21:13;;;;;;;1.55;1.00;;;;;;;;;;5001627;28;20231;-19
2022/05/03 04:23:40;;;;;;;1.30;0.80;;;;;;;;;;4998706;28;20232;-19
2022/05/03 04:26:09;;;;;;;1.50;1.00;;;;;;;;;;5004650;28;20235;-19
2022/05/03 04:28:37;;;;;;;1.38;1.13;;;;;;;;;;5007537;28;20231;-19
2022/05/03 04:31:05;;;;;;;1.88;0.82;;;;;;;;;;5006539;28;20228;-19
2022/05/03 04:33:32;;;;;;;0.93;0.75;;;;;;;;;;5004691;28;20708;-19
2022/05/03 04:35:59;;;;;;;1.02;0.93;;;;;;;;;;5007029;28;20229;-19
2022/05/03 04:38:27;;;;;;;1.00;0.90;;;;;;;;;;5006243;28;21050;-19
2022/05/03 04:40:58;;;;;;;1.10;1.00;;;;;;;;;;5005750;28;20232;-20
2022/05/03 04:43:25;;;;;;;3.13;1.00;;;;;;;;;;5003648;28;20232;-19
2022/05/03 04:45:54;;;;;;;1.48;0.90;;;;;;;;;;5007089;28;20231;-20
2022/05/03 04:48:21;;;;;;;1.27;0.70;;;;;;;;;;5006132;28;20632;-19
2022/05/03 04:50:48;;;;;;;1.65;1.02;;;;;;;;;;5008534;28;20235;-19
2022/05/03 04:53:16;;;;;;;2.25;0.85;;;;;;;;;;5008623;28;21048;-19
2022/05/03 04:55:43;;;;;;;2.30;1.02;;;;;;;;;;5008635;28;20999;-19
2022/05/03 04:58:10;;;;;;;1.30;1.00;;;;;;;;;;5008202;28;20243;-19
2022/05/03 05:00:38;;;;;;;1.30;1.00;;;;;;;;;;5008854;28;20235;-19
2022/05/03 05:03:06;;;;;;;1.23;1.00;;;;;;;;;;5006038;28;20228;-19
2022/05/03 05:05:34;;;;;;;1.38;1.00;;;;;;;;;;5006897;28;20236;-19
2022/05/03 05:08:04;;;;;;;1.30;0.90;;;;;;;;;;5006477;28;20235;-19
2022/05/03 05:10:32;;;;;;;2.78;1.00;;;;;;;;;;5007628;28;20710;-19
2022/05/03 05:13:00;;;;;;;1.17;0.90;;;;;;;;;;5008299;28;20242;-20
2022/05/03 05:15:27;;;;;;;2.20;0.85;;;;;;;;;;5005550;28;20239;-20
2022/05/03 05:17:55;;;;;;;1.70;1.17;;;;;;;;;;5007661;28;20227;-20
2022/05/03 05:20:24;;;;;;;1.75;1.05;;;;;;;;;;5008546;28;21520;-19
2022/05/03 05:22:51;;;;;;;1.02;0.80;;;;;;;;;;4984348;28;20712;-19
2022/05/03 05:25:39;;;;;;;1.90;0.90;;;;;;;;;;4986037;28;20253;-19
2022/05/03 05:28:06;;;;;;;0.95;0.80;;;;;;;;;;4987453;28;20248;-19
2022/05/03 05:30:34;;;;;;;1.05;0.90;;;;;;;;;;4986315;28;20264;-19
2022/05/03 05:33:01;;;;;;;0.80;0.80;;;;;;;;;;4987449;28;20244;-19
2022/05/03 05:35:29;;;;;;;1.52;0.80;;;;;;;;;;4985259;28;20958;-20
2022/05/03 05:37:57;;;;;;;1.48;0.90;;;;;;;;;;4982570;28;20236;-19
2022/05/03 05:40:24;;;;;;;1.40;1.08;;;;;;;;;;4984611;28;20761;-19
2022/05/03 05:42:51;;;;;;;1.10;0.85;;;;;;;;;;4982379;28;20260;-19
2022/05/03 05:45:19;;;;;;;1.05;0.95;;;;;;;;;;4984206;28;20236;-19
2022/05/03 05:47:46;;;;;;;1.40;1.00;;;;;;;;;;4989326;28;20801;-19
2022/05/03 05:50:13;;;;;;;1.95;1.20;;;;;;;;;;4982071;28;20225;-19
2022/05/03 05:55:27;;;;;;;1.50;0.98;;;;;;;;;;4983859;28;20239;-19
2022/05/03 05:57:54;;;;;;;1.25;1.00;;;;;;;;;;4984752;28;20233;-19
2022/05/03 06:00:21;;;;;;;2.50;1.23;;;;;;;;;;4984498;28;20607;-19
2022/05/03 06:02:49;;;;;;;1.10;0.80;;;;;;;;;;4985387;28;20237;-19
2022/05/03 06:05:16;;;;;;;0.82;0.80;;;;;;;;;;4984032;28;20239;-19
2022/05/03 06:07:45;;;;;;;1.83;1.00;;;;;;;;;;4984435;28;20228;-19
2022/05/03 06:10:12;;;;;;;1.23;0.85;;;;;;;;;;4981395;28;20224;-19
2022/05/03 06:12:39;;;;;;;1.35;1.00;;;;;;;;;;4977315;28;20221;-19
2022/05/03 06:15:07;;;;;;;2.75;1.02;;;;;;;;;;4983243;28;20598;-19
2022/05/03 06:17:35;;;;;;;1.30;1.00;;;;;;;;;;4982187;28;20684;-19
2022/05/03 06:20:02;;;;;;;1.77;1.10;;;;;;;;;;4982369;28;20319;-19
2022/05/03 06:22:29;;;;;;;2.08;1.08;;;;;;;;;;4998713;28;20250;-19
2022/05/03 06:24:58;;;;;;;1.23;0.90;;;;;;;;;;5002812;28;20396;-19
2022/05/03 06:27:25;;;;;;;1.17;0.90;;;;;;;;;;5000067;28;20240;-19
2022/05/03 06:29:53;;;;;;;1.20;0.93;;;;;;;;;;5000941;28;20700;-20
2022/05/03 06:32:20;;;;;;;2.92;1.13;;;;;;;;;;5001885;28;21361;-19
2022/05/03 06:34:47;;;;;;;1.20;1.05;;;;;;;;;;5003761;28;20227;-19
2022/05/03 06:37:16;;;;;;;1.58;0.95;;;;;;;;;;5003662;28;20227;-19
2022/05/03 06:39:44;;;;;;;1.60;1.00;;;;;;;;;;5002870;28;20274;-20
2022/05/03 06:42:12;;;;;;;2.60;1.08;;;;;;;;;;5000574;28;20243;-20
2022/05/03 06:44:40;;;;;;;0.98;0.82;;;;;;;;;;5003684;28;21058;-20
2022/05/03 06:47:07;;;;;;;1.10;1.00;;;;;;;;;;5001195;28;20228;-18
2022/05/03 06:49:35;;;;;;;1.40;1.02;;;;;;;;;;5000314;28;20259;-18
2022/05/03 06:52:02;;;;;;;1.10;1.00;;;;;;;;;;5001880;28;20246;-18
2022/05/03 06:54:30;;;;;;;1.00;0.90;;;;;;;;;;5002078;28;20615;-18
2022/05/03 06:56:57;;;;;;;1.30;0.98;;;;;;;;;;5000141;28;20235;-19
2022/05/03 06:59:26;;;;;;;1.10;0.80;;;;;;;;;;5001047;28;20998;-18
2022/05/03 07:01:53;;;;;;;1.10;0.90;;;;;;;;;;5003596;28;20262;-18
2022/05/03 07:04:20;;;;;;;1.70;0.80;;;;;;;;;;5000252;28;20728;-18
2022/05/03 07:06:48;;;;;;;0.88;0.82;;;;;;;;;;5003443;28;20282;-18
2022/05/03 07:09:15;;;;;;;1.42;0.90;;;;;;;;;;4999863;28;20247;-18
2022/05/03 07:11:42;;;;;;;1.27;0.80;;;;;;;;;;5003149;28;20236;-18
2022/05/03 07:14:10;;;;;;;0.98;0.80;;;;;;;;;;5002619;28;20599;-18
2022/05/03 07:16:38;;;;;;;1.67;0.90;;;;;;;;;;5001090;28;20228;-18
2022/05/03 07:24:35;;;;;;;1.02;0.80;;;;;;;;;;5002461;28;20691;-19
2022/05/03 07:27:03;;;;;;;0.80;0.70;;;;;;;;;;5001090;28;20243;-19
2022/05/03 07:29:30;;;;;;;1.25;1.00;;;;;;;;;;5001678;28;20250;-18
2022/05/03 07:31:59;;;;;;;1.05;0.73;;;;;;;;;;5000610;28;20236;-18
2022/05/03 07:34:26;;;;;;;1.02;0.93;;;;;;;;;;5002108;28;20236;-18
2022/05/03 07:36:53;;;;;;;1.67;0.90;;;;;;;;;;5002132;28;20699;-19
2022/05/03 07:39:21;;;;;;;1.17;0.80;;;;;;;;;;4999808;28;20240;-20
2022/05/03 07:41:49;;;;;;;1.30;0.88;;;;;;;;;;5002716;28;20726;-19
2022/05/03 07:44:16;;;;;;;0.85;0.82;;;;;;;;;;5000350;28;20217;-20
2022/05/03 07:46:43;;;;;;;1.35;0.90;;;;;;;;;;5001265;28;20244;-19
2022/05/03 07:49:12;;;;;;;2.45;0.88;;;;;;;;;;5002393;28;20785;-20
2022/05/03 07:51:40;;;;;;;0.95;0.82;;;;;;;;;;4999983;28;20232;-20
2022/05/03 07:54:07;;;;;;;1.00;0.85;;;;;;;;;;5001848;28;20232;-20
2022/05/03 07:56:35;;;;;;;1.02;0.88;;;;;;;;;;5003488;28;20285;-20
2022/05/03 07:59:02;;;;;;;1.42;1.00;;;;;;;;;;4998556;28;20695;-20
2022/05/03 08:01:30;;;;;;;1.60;1.10;;;;;;;;;;4999755;28;20251;-20
2022/05/03 08:03:57;;;;;;;1.50;0.90;;;;;;;;;;5000481;28;20849;-19
2022/05/03 08:06:27;;;;;;;1.00;0.80;;;;;;;;;;5000385;28;20222;-18
2022/05/03 08:08:56;;;;;;;1.10;0.80;;;;;;;;;;4996053;28;20345;-18
2022/05/03 08:11:24;;;;;;;0.80;0.80;;;;;;;;;;5001669;28;20656;-18
2022/05/03 08:13:52;;;;;;;1.60;0.90;;;;;;;;;;4999818;28;20239;-20
2022/05/03 08:16:20;;;;;;;1.85;0.98;;;;;;;;;;5000472;28;20228;-18
2022/05/03 08:18:47;;;;;;;1.20;1.10;;;;;;;;;;5003131;28;20254;-18
2022/05/03 08:21:15;;;;;;;1.10;1.00;;;;;;;;;;5001776;28;20247;-18
2022/05/03 08:23:43;;;;;;;1.20;1.10;;;;;;;;;;4998673;28;20228;-18
2022/05/03 08:26:11;;;;;;;2.45;1.00;;;;;;;;;;5001883;28;20240;-17
2022/05/03 08:28:39;;;;;;;1.27;1.02;;;;;;;;;;5001321;28;20962;-20
2022/05/03 08:31:07;;;;;;;1.20;1.10;;;;;;;;;;5001944;28;20227;-19
2022/05/03 08:33:35;;;;;;;1.20;1.05;;;;;;;;;;5001152;28;20691;-20
2022/05/03 08:36:03;;;;;;;1.30;1.20;;;;;;;;;;5002262;28;20232;-18
2022/05/03 08:44:01;;;;;;;1.70;1.40;;;;;;;;;;5002574;28;20239;-18
2022/05/03 08:46:30;;;;;;;1.98;1.10;;;;;;;;;;5000416;28;20243;-18
2022/05/03 08:49:00;;;;;;;1.45;1.30;;;;;;;;;;4999867;28;20339;-18
2022/05/03 08:51:29;;;;;;;2.15;1.08;;;;;;;;;;5000833;28;20235;-18
2022/05/03 08:53:56;;;;;;;1.60;1.23;;;;;;;;;;5000536;28;20235;-18
2022/05/03 08:56:25;;;;;;;1.63;1.15;;;;;;;;;;4999434;28;20262;-18
2022/05/03 08:58:53;;;;;;;1.33;1.20;;;;;;;;;;4997936;28;21080;-19
2022/05/03 09:01:20;;;;;;;1.23;1.13;;;;;;;;;;4998766;28;20387;-18
2022/05/03 09:03:47;;;;;;;1.50;1.27;;;;;;;;;;5001724;28;20232;-18
2022/05/03 09:06:15;;;;;;;1.88;1.17;;;;;;;;;;4997746;28;20234;-18
2022/05/03 09:08:42;;;;;;;1.88;1.60;;;;;;;;;;4998304;28;20660;-18
2022/05/03 09:11:13;;;;;;;1.30;1.20;;;;;;;;;;5001403;28;20270;-18
2022/05/03 09:13:42;;;;;;;1.50;1.40;;;;;;;;;;5001535;28;20244;-18
2022/05/03 09:16:10;;;;;;;1.52;1.38;;;;;;;;;;5003788;28;20795;-18
2022/05/03 09:18:37;;;;;;;1.45;1.35;;;;;;;;;;5004331;28;20228;-18
2022/05/03 09:24:01;;;;;;;1.38;1.27;;;;;;;;;;5006522;28;20235;-18
2022/05/03 09:26:29;;;;;;;1.80;1.52;;;;;;;;;;5002877;28;20707;-18
2022/05/03 09:29:00;;;;;;;2.45;1.48;;;;;;;;;;5003662;28;21010;-18
2022/05/03 09:31:29;;;;;;;2.85;1.40;;;;;;;;;;5004588;28;20598;-18
2022/05/03 09:33:56;;;;;;;2.00;1.45;;;;;;;;;;5003903;28;20235;-18
2022/05/03 09:36:23;;;;;;;2.95;1.85;;;;;;;;;;5002920;28;20703;-18
2022/05/03 09:39:20;;;;;;;3.83;1.65;;;;;;;;;;5001576;28;20232;-18
2022/05/03 09:42:03;;;;;;;1.95;1.75;;;;;;;;;;5001559;28;20250;-19
2022/05/03 09:44:36;;;;;;;2.17;1.70;;;;;;;;;;5002916;28;20233;-18
2022/05/03 09:47:10;;;;;;;1.90;1.70;;;;;;;;;;5002890;28;20246;-18
2022/05/03 09:49:37;;;;;;;2.35;1.83;;;;;;;;;;5003657;28;20270;-18
2022/05/03 09:52:05;;;;;;;3.70;1.80;;;;;;;;;;5002471;28;20227;-18
2022/05/03 09:54:45;;;;;;;2.78;1.80;;;;;;;;;;5002755;28;20956;-19
2022/05/03 09:57:13;;;;;;;1.95;1.75;;;;;;;;;;5002395;28;20232;-18
2022/05/03 09:59:43;;;;;;;1.80;1.70;;;;;;;;;;5001403;28;20224;-18
2022/05/03 10:02:10;;;;;;;2.47;1.92;;;;;;;;;;5002904;28;20240;-18
2022/05/03 10:04:38;;;;;;;3.53;1.70;;;;;;;;;;5003896;28;21142;-18
2022/05/03 10:07:05;;;;;;;2.28;1.65;;;;;;;;;;5001945;28;20284;-19
2022/05/03 10:09:33;;;;;;;2.95;2.05;;;;;;;;;;5004013;28;20232;-20
2022/05/03 10:12:01;;;;;;;2.67;1.80;;;;;;;;;;5002735;28;20208;-20
2022/05/03 10:14:28;;;;;;;1.80;1.67;;;;;;;;;;5002005;28;20708;-20
2022/05/03 10:22:27;;;;;;;3.50;2.20;;;;;;;;;;5003601;28;20254;-19
2022/05/03 10:24:54;;;;;;;2.40;2.10;;;;;;;;;;5002673;28;20234;-19
2022/05/03 10:27:25;;;;;;;2.58;1.88;;;;;;;;;;5005741;28;20239;-19
2022/05/03 10:30:14;;;;;;;2.50;2.30;;;;;;;;;;5000692;28;20232;-20
2022/05/03 10:32:42;;;;;;;2.90;2.60;;;;;;;;;;5001001;28;20259;-19
2022/05/03 10:35:25;;;;;;;3.08;2.78;;;;;;;;;;5003962;28;20762;-19
2022/05/03 10:38:05;;;;;;;2.78;2.47;;;;;;;;;;5004889;28;20227;-19
2022/05/03 10:40:38;;;;;;;4.80;2.58;;;;;;;;;;5007034;28;20237;-19
2022/05/03 10:43:12;;;;;;;2.90;2.30;;;;;;;;;;5000557;28;20283;-19
2022/05/03 10:45:53;;;;;;;3.15;2.42;;;;;;;;;;5003477;28;20227;-19
2022/05/03 10:48:25;;;;;;;3.10;2.38;;;;;;;;;;5000859;28;20223;-20
2022/05/03 10:50:53;;;;;;;2.38;2.17;;;;;;;;;;4999526;28;20279;-19
2022/05/03 10:53:27;;;;;;;2.83;2.42;;;;;;;;;;5003148;28;20232;-19
2022/05/03 10:56:16;;;;;;;3.05;2.75;;;;;;;;;;5001140;28;20240;-20
2022/05/03 10:58:47;;;;;;;3.97;2.47;;;;;;;;;;4999919;28;20294;-19
2022/05/03 11:01:17;;;;;;;2.28;1.95;;;;;;;;;;5001881;28;20240;-19
2022/05/03 11:03:59;;;;;;;3.25;2.30;;;;;;;;;;5007043;28;20254;-20
2022/05/03 11:06:32;;;;;;;2.90;2.10;;;;;;;;;;5000755;28;20224;-19
2022/05/03 11:09:08;;;;;;;2.58;1.83;;;;;;;;;;5001810;28;20234;-19
2022/05/03 11:11:52;;;;;;;3.60;2.47;;;;;;;;;;5002621;28;20235;-19
2022/05/03 11:14:38;;;;;;;2.53;2.33;;;;;;;;;;5000974;28;20258;-20
2022/05/03 11:17:05;;;;;;;2.53;2.22;;;;;;;;;;4998939;28;20240;-19
2022/05/03 11:19:34;;;;;;;2.50;2.20;;;;;;;;;;4999679;28;20285;-19
2022/05/03 11:22:06;;;;;;;2.10;1.85;;;;;;;;;;5000695;28;20274;-19
2022/05/03 11:24:36;;;;;;;3.33;2.20;;;;;;;;;;4997984;28;20730;-19
2022/05/03 11:27:04;;;;;;;2.20;2.00;;;;;;;;;;5003888;28;20234;-20
2022/05/03 11:29:32;;;;;;;2.28;2.05;;;;;;;;;;5001260;28;20235;-19
2022/05/03 11:32:00;;;;;;;2.10;1.83;;;;;;;;;;5000854;28;21187;-19
2022/05/03 11:34:27;;;;;;;2.78;2.10;;;;;;;;;;5001590;28;20220;-20
2022/05/03 11:36:55;;;;;;;2.42;2.00;;;;;;;;;;5002486;28;20240;-20
2022/05/03 11:39:24;;;;;;;2.83;2.33;;;;;;;;;;4999838;28;20707;-20
2022/05/03 11:41:51;;;;;;;2.10;1.80;;;;;;;;;;5002560;28;20255;-20
2022/05/03 11:44:18;;;;;;;2.95;2.08;;;;;;;;;;4999433;28;21030;-20
2022/05/03 11:46:47;;;;;;;2.03;1.90;;;;;;;;;;4998511;28;20238;-20
2022/05/03 11:49:15;;;;;;;2.83;2.28;;;;;;;;;;5002655;28;20228;-20
2022/05/03 11:57:17;;;;;;;2.50;1.90;;;;;;;;;;5002875;28;20229;-20
2022/05/03 11:59:45;;;;;;;2.83;2.20;;;;;;;;;;5002892;28;20227;-19
2022/05/03 12:02:14;;;;;;;2.47;2.20;;;;;;;;;;5001296;28;20232;-19
2022/05/03 12:04:56;;;;;;;3.20;2.30;;;;;;;;;;5002171;28;20259;-19
2022/05/03 12:07:23;;;;;;;1.90;1.70;;;;;;;;;;4995727;28;20295;-20
2022/05/03 12:09:52;;;;;;;3.05;1.88;;;;;;;;;;5007295;28;20667;-19
2022/05/03 12:15:14;;;;;;;2.47;2.22;;;;;;;;;;5000253;28;20294;-20
2022/05/03 12:17:54;;;;;;;3.67;1.92;;;;;;;;;;4999643;28;20224;-19
2022/05/03 12:20:22;;;;;;;2.97;1.85;;;;;;;;;;5000762;28;20224;-19
2022/05/03 12:23:12;;;;;;;2.67;2.00;;;;;;;;;;5001741;28;20277;-19
2022/05/03 12:25:41;;;;;;;2.55;2.35;;;;;;;;;;5001405;28;20314;-19
2022/05/03 12:28:08;;;;;;;2.40;2.20;;;;;;;;;;5002377;28;20256;-19
2022/05/03 12:30:35;;;;;;;2.97;2.67;;;;;;;;;;5000826;28;20234;-19
2022/05/03 12:33:04;;;;;;;4.43;2.53;;;;;;;;;;5000480;28;20232;-19
2022/05/03 12:35:32;;;;;;;3.33;2.80;;;;;;;;;;5000648;28;20236;-19
2022/05/03 12:38:07;;;;;;;2.65;2.45;;;;;;;;;;5000660;28;20227;-19
2022/05/03 12:40:34;;;;;;;3.33;2.53;;;;;;;;;;5000879;28;20232;-20
2022/05/03 12:43:10;;;;;;;3.40;2.75;;;;;;;;;;4999731;28;20251;-19
2022/05/03 12:45:37;;;;;;;2.60;2.30;;;;;;;;;;4999617;28;20734;-19
2022/05/03 12:48:06;;;;;;;3.65;2.85;;;;;;;;;;5003008;28;20215;-19
2022/05/03 12:50:33;;;;;;;2.78;2.45;;;;;;;;;;5003957;28;20236;-20
2022/05/03 12:53:00;;;;;;;2.92;2.63;;;;;;;;;;5004852;28;20710;-19
2022/05/03 12:55:28;;;;;;;3.72;2.90;;;;;;;;;;5006126;28;20235;-20
2022/05/03 13:00:42;;;;;;;3.65;3.10;;;;;;;;;;5007073;28;21060;-19
2022/05/03 13:03:10;;;;;;;3.45;3.00;;;;;;;;;;5005224;28;21037;-19
2022/05/03 13:05:38;;;;;;;4.07;3.35;;;;;;;;;;5004162;28;20247;-20
2022/05/03 13:08:06;;;;;;;3.25;2.95;;;;;;;;;;5001436;28;20236;-20
2022/05/03 13:10:34;;;;;;;4.88;4.05;;;;;;;;;;5003068;28;20239;-20
2022/05/03 13:13:02;;;;;;;3.75;3.17;;;;;;;;;;5003673;28;20247;-20
2022/05/03 13:15:30;;;;;;;4.93;4.00;;;;;;;;;;5006630;28;20242;-19
2022/05/03 13:17:59;;;;;;;4.53;3.58;;;;;;;;;;5003921;28;20286;-20
2022/05/03 13:20:26;;;;;;;4.20;3.80;;;;;;;;;;5002697;28;20372;-19
2022/05/03 13:22:53;;;;;;;4.43;3.83;;;;;;;;;;5003660;28;20242;-19
2022/05/03 13:25:21;;;;;;;5.25;4.22;;;;;;;;;;5003372;28;20232;-19
2022/05/03 13:27:48;;;;;;;4.10;3.50;;;;;;;;;;5005746;28;20243;-20
2022/05/03 13:30:15;;;;;;;4.05;3.45;;;;;;;;;;5004160;28;20235;-20
2022/05/03 13:32:43;;;;;;;5.07;3.78;;;;;;;;;;5004838;28;20236;-20
2022/05/03 13:35:11;;;;;;;4.40;3.70;;;;;;;;;;5002163;28;20232;-20
2022/05/03 13:40:30;;;;;;;5.85;4.25;;;;;;;;;;5005350;28;20255;-20
2022/05/03 13:42:58;;;;;;;5.57;4.03;;;;;;;;;;5002293;28;20236;-19
2022/05/03 13:45:26;;;;;;;5.82;4.53;;;;;;;;;;5002694;28;20219;-19
2022/05/03 13:48:13;;;;;;;4.03;3.60;;;;;;;;;;5003031;28;20291;-19
2022/05/03 13:50:42;;;;;;;7.90;4.07;;;;;;;;;;5004163;28;20233;-20
2022/05/03 13:53:09;;;;;;;5.55;4.65;;;;;;;;;;5001665;28;20730;-20
2022/05/03 13:55:38;;;;;;;5.50;4.22;;;;;;;;;;5005152;28;20238;-19
2022/05/03 13:58:06;;;;;;;4.72;3.88;;;;;;;;;;5002240;28;20225;-19
2022/05/03 14:00:34;;;;;;;5.05;3.90;;;;;;;;;;5006215;28;20236;-19
2022/05/03 14:03:01;;;;;;;5.10;3.92;;;;;;;;;;5002402;28;20601;-19
2022/05/03 14:05:28;;;;;;;5.22;4.10;;;;;;;;;;5002456;28;20706;-19
2022/05/03 14:07:57;;;;;;;5.47;4.07;;;;;;;;;;5007495;28;20235;-19
2022/05/03 14:10:24;;;;;;;4.70;4.10;;;;;;;;;;5003297;28;20242;-20
2022/05/03 14:12:52;;;;;;;5.13;4.25;;;;;;;;;;5003570;28;20318;-19
2022/05/03 14:15:19;;;;;;;5.18;4.28;;;;;;;;;;5003042;28;21143;-19
2022/05/03 14:17:46;;;;;;;4.38;3.92;;;;;;;;;;5000708;28;20228;-19
2022/05/03 14:20:14;;;;;;;5.47;4.55;;;;;;;;;;5005360;28;20240;-19
2022/05/03 14:22:41;;;;;;;4.80;4.25;;;;;;;;;;5003174;28;20243;-20
2022/05/03 14:25:11;;;;;;;6.35;4.60;;;;;;;;;;5001332;28;20247;-19
2022/05/03 14:27:38;;;;;;;5.53;4.38;;;;;;;;;;5004772;28;21084;-20
2022/05/03 14:30:06;;;;;;;5.13;4.00;;;;;;;;;;5002747;28;20236;-20
2022/05/03 14:32:33;;;;;;;5.55;4.22;;;;;;;;;;5004137;28;20236;-20
2022/05/03 14:35:01;;;;;;;6.00;4.97;;;;;;;;;;5006494;28;20235;-20
2022/05/03 14:37:28;;;;;;;6.50;4.45;;;;;;;;;;5001865;28;20290;-20
2022/05/03 14:39:56;;;;;;;6.10;4.57;;;;;;;;;;5002755;28;20718;-20
2022/05/03 14:42:26;;;;;;;6.38;4.57;;;;;;;;;;5004534;28;20318;-19
2022/05/03 14:44:53;;;;;;;6.07;4.78;;;;;;;;;;4999697;28;20262;-19
2022/05/03 14:47:21;;;;;;;4.93;4.43;;;;;;;;;;5001511;28;20328;-20
2022/05/03 14:49:49;;;;;;;5.93;4.78;;;;;;;;;;4999823;28;20232;-20
2022/05/03 14:52:17;;;;;;;5.45;4.28;;;;;;;;;;5003534;28;20579;-20
2022/05/03 14:54:45;;;;;;;5.75;4.57;;;;;;;;;;5003331;28;20235;-19
2022/05/03 15:02:54;;;;;;;5.43;4.07;;;;;;;;;;5003666;28;20235;-19
2022/05/03 15:05:22;;;;;;;7.00;4.78;;;;;;;;;;5003504;28;20726;-20
2022/05/03 15:07:50;;;;;;;6.40;5.05;;;;;;;;;;5000061;28;21268;-20
2022/05/03 15:10:17;;;;;;;5.85;4.65;;;;;;;;;;5003402;28;20231;-19
2022/05/03 15:12:44;;;;;;;6.18;5.00;;;;;;;;;;4995332;28;20249;-19
2022/05/03 15:15:16;;;;;;;10.63;4.97;;;;;;;;;;5001252;28;20238;-20
2022/05/03 15:17:44;;;;;;;6.57;4.68;;;;;;;;;;5003217;28;20226;-20
2022/05/03 15:20:12;;;;;;;6.00;4.45;;;;;;;;;;4999951;28;20240;-20
2022/05/03 15:25:24;;;;;;;7.00;4.95;;;;;;;;;;5002998;28;20231;-20
2022/05/03 15:27:52;;;;;;;6.40;4.50;;;;;;;;;;4999552;28;20238;-19
2022/05/03 15:30:20;;;;;;;5.88;4.40;;;;;;;;;;5001558;28;20247;-19
2022/05/03 15:32:48;;;;;;;5.95;4.50;;;;;;;;;;5002927;28;20691;-19
2022/05/03 15:35:15;;;;;;;7.43;4.60;;;;;;;;;;5002983;28;20243;-19
2022/05/03 15:37:43;;;;;;;5.07;4.35;;;;;;;;;;5002633;28;20231;-20
2022/05/03 15:40:10;;;;;;;8.02;4.65;;;;;;;;;;4999901;28;20740;-20
2022/05/03 15:42:38;;;;;;;6.75;4.72;;;;;;;;;;5002076;28;20228;-19